Web Počasí Slunečno.cz (Podmínky, ePrivacy) používá cookies a personalizace pro reklamní účely. Pohybem po stránce vyjadřujete souhlas. Odejít

Aktuální počasí v Česku a ve světě - METAR

Seznam meteostanic umístěných nejčasteji na letišti v ČR a ve světě

Vyhledat místa podle abecedy:
A B C D E F G H I J K L M N O P Q R S T U V W X Y Z

Filtrovat:

ID stanice:
a/nebo
Název místa (fulltext):
 
Místo (ID)Naposledy načteno 
Faro (LPFR) 21.09.2021 19:00 UTC Zobrazit METAR
LPFR 211900Z 29008KT 9999 FEW025 23/20 Q1014
Florence (LIRQ) 21.09.2021 18:50 UTC Zobrazit METAR
LIRQ 211850Z VRB02KT CAVOK 20/13 Q1022
Foggia, Gino Lisa (LIBF) 21.09.2021 15:50 UTC Zobrazit METAR
LIBF 211550Z 31019KT 9999 FEW030 BKN040 23/14 Q1021
Fort de France (TFFF) 21.09.2021 19:00 UTC Zobrazit METAR
TFFF 211900Z AUTO 12011KT 9999 SCT040 SCT047 32/23 Q1011 NOSIG
Frankfurt/ Main (EDDF) 21.09.2021 18:50 UTC Zobrazit METAR
EDDF 211850Z 36003KT 300V050 CAVOK 11/07 Q1030 NOSIG
Freetown (GFLL) 31.03.2021 13:00 UTC Zobrazit METAR
GFLL 311300Z 30010KT 8000 HZ FEW014 30/23 Q1009
Funafuti (NGFU) 18.09.2021 12:00 UTC Zobrazit METAR
NGFU 181200Z 09010KT 9999 FEW020 BKN300 28/23 Q1012
Reklama

Reklama


Newslettter

Počasí na Váš email

Emaily jsou bez reklamy a bez spamu



Odhlásit newsletter



Zpravodajství o počasí z ČR i ze světa | Aktuálně na Slunečno.cz Slunečno.cz

Všechny články




Další české internetové stránky o počasí najdete v katalogu TOPlist - weby o počasí nebo vyhledejte na internetu, co jste tu na Počasí Slunečno Slunečnu zatím nenašli:
Aplikace Slunečno.cz je určená pro Windows 10 a 11 nebo Android, zabírá velmi málo místa a rychle se instaluje.
Reklama